Time;durP1;ratioP1;P1;durP2;ratioP2;P2;SDS_P1;SDS_P2;PMS_P1;PMS_P2;Temp;Humidity;BMP_temperature;BMP_pressure;BME280_temperature;BME280_humidity;BME280_pressure;Samples;Min_cycle;Max_cycle;Signal;HPM_P1;HPM_P2
2022/09/01 00:02:14;;;;;;;2.13;1.10;;;17.80;99.90;;;;;;5037394;28;20200;-79
2022/09/01 00:04:43;;;;;;;2.03;1.07;;;17.70;99.90;;;;;;5037642;28;20271;-79
2022/09/01 00:07:10;;;;;;;1.17;0.90;;;17.70;99.90;;;;;;5039363;28;20204;-78
2022/09/01 00:09:36;;;;;;;1.73;1.00;;;17.70;99.90;;;;;;5037443;28;20206;-79
2022/09/01 00:12:03;;;;;;;3.00;0.93;;;17.60;99.90;;;;;;5037211;28;20310;-79
2022/09/01 00:14:32;;;;;;;2.10;0.80;;;17.60;99.90;;;;;;5038766;28;20180;-78
2022/09/01 00:17:00;;;;;;;1.27;0.80;;;17.50;1.00;;;;;;5039023;28;20246;-78
2022/09/01 00:19:28;;;;;;;3.00;0.90;;;17.50;1.00;;;;;;5038682;28;20553;-78
2022/09/01 00:21:54;;;;;;;1.30;0.90;;;17.50;1.00;;;;;;5036289;28;20230;-78
2022/09/01 00:24:20;;;;;;;2.47;1.10;;;17.40;99.90;;;;;;5037320;28;20180;-79
2022/09/01 00:26:46;;;;;;;0.97;0.70;;;17.40;1.00;;;;;;5038522;28;20571;-79
2022/09/01 00:29:12;;;;;;;2.73;1.20;;;17.40;1.00;;;;;;5038215;28;20183;-78
2022/09/01 00:31:38;;;;;;;1.10;1.00;;;17.40;1.00;;;;;;5038487;28;20255;-78
2022/09/01 00:34:04;;;;;;;1.17;1.07;;;17.40;1.00;;;;;;5036822;28;20176;-78
2022/09/01 00:36:29;;;;;;;2.60;0.90;;;17.30;1.00;;;;;;5037970;28;20180;-79
2022/09/01 00:38:55;;;;;;;2.30;0.97;;;17.30;1.00;;;;;;5038690;28;20187;-79
2022/09/01 00:41:24;;;;;;;1.10;0.90;;;17.30;1.00;;;;;;5038254;28;20196;-78
2022/09/01 00:43:54;;;;;;;1.80;1.17;;;17.30;1.00;;;;;;5038230;28;20208;-79
2022/09/01 00:46:24;;;;;;;1.47;1.00;;;17.30;1.00;;;;;;5035835;28;20235;-77
2022/09/01 00:48:55;;;;;;;2.87;1.00;;;17.30;1.00;;;;;;5036526;28;20176;-79
2022/09/01 00:51:22;;;;;;;3.07;1.07;;;17.30;1.00;;;;;;5037971;28;20190;-78
2022/09/01 00:53:48;;;;;;;1.60;1.00;;;17.20;1.00;;;;;;5036308;28;20184;-79
2022/09/01 00:56:14;;;;;;;1.47;1.20;;;17.20;1.00;;;;;;5036553;28;20172;-79
2022/09/01 00:58:40;;;;;;;2.87;0.90;;;17.20;1.00;;;;;;5037450;28;20177;-78
2022/09/01 01:01:08;;;;;;;1.83;1.03;;;17.20;1.00;;;;;;5038067;28;20175;-78
2022/09/01 01:03:34;;;;;;;2.53;1.00;;;17.20;1.00;;;;;;5037352;28;20180;-79
2022/09/01 01:06:03;;;;;;;3.47;1.20;;;17.20;1.00;;;;;;5038182;28;20585;-78
2022/09/01 01:08:32;;;;;;;5.00;1.07;;;17.10;1.00;;;;;;5037807;28;20169;-78
2022/09/01 01:11:18;;;;;;;1.93;1.10;;;17.10;1.00;;;;;;5037831;28;20164;-78
2022/09/01 01:13:49;;;;;;;0.90;0.73;;;17.20;3.00;;;;;;5036739;28;20192;-78
2022/09/01 01:16:16;;;;;;;3.73;1.10;;;17.20;14.30;;;;;;5036905;28;20217;-78
2022/09/01 01:18:42;;;;;;;2.57;1.27;;;17.20;1.00;;;;;;5035566;28;20195;-78
2022/09/01 01:24:25;;;;;;;2.73;1.10;;;17.20;1.00;;;;;;5037900;28;20307;-78
2022/09/01 01:26:51;;;;;;;1.23;0.90;;;17.20;1.00;;;;;;5037879;28;20215;-78
2022/09/01 01:29:17;;;;;;;6.17;1.07;;;17.20;1.00;;;;;;5037619;28;20176;-76
2022/09/01 01:31:43;;;;;;;2.40;1.27;;;17.20;56.90;;;;;;5036425;28;20338;-78
2022/09/01 01:34:09;;;;;;;1.10;0.90;;;17.10;99.80;;;;;;5036806;28;20546;-78
2022/09/01 01:36:37;;;;;;;4.17;1.27;;;17.20;99.90;;;;;;5037857;28;20173;-78
2022/09/01 01:39:10;;;;;;;2.40;1.07;;;17.20;99.90;;;;;;5038796;28;20263;-78
2022/09/01 01:41:39;;;;;;;2.00;1.07;;;17.20;99.90;;;;;;5038603;28;20634;-78
2022/09/01 01:44:06;;;;;;;2.33;1.20;;;17.10;99.90;;;;;;5035880;28;20177;-78
2022/09/01 01:46:35;;;;;;;2.20;1.00;;;17.10;99.90;;;;;;5035624;28;20204;-78
2022/09/01 01:49:03;;;;;;;1.50;0.80;;;17.10;99.90;;;;;;5037524;28;20263;-78
2022/09/01 01:51:31;;;;;;;5.53;1.10;;;17.10;99.90;;;;;;5037288;28;20199;-78
2022/09/01 01:53:58;;;;;;;1.67;1.20;;;17.10;99.90;;;;;;5036017;28;20176;-76
2022/09/01 01:56:24;;;;;;;1.77;0.93;;;17.10;99.90;;;;;;5036930;28;20172;-78
2022/09/01 01:58:53;;;;;;;1.60;1.10;;;17.10;99.90;;;;;;5036038;28;20178;-78
2022/09/01 02:01:20;;;;;;;2.43;1.93;;;17.00;99.90;;;;;;5037556;28;20172;-78
2022/09/01 02:03:46;;;;;;;2.70;1.20;;;17.00;99.90;;;;;;5036657;28;20240;-78
2022/09/01 02:06:12;;;;;;;1.80;1.00;;;17.00;99.90;;;;;;5037654;28;20235;-78
2022/09/01 02:08:39;;;;;;;1.90;1.00;;;17.00;99.90;;;;;;5036723;28;20172;-77
2022/09/01 02:11:07;;;;;;;1.80;1.20;;;17.00;99.90;;;;;;5039223;28;20192;-78
2022/09/01 02:13:34;;;;;;;3.13;1.03;;;16.90;99.90;;;;;;5051116;28;20165;-77
2022/09/01 02:16:03;;;;;;;1.83;0.90;;;16.80;99.90;;;;;;5051633;28;20171;-78
2022/09/01 02:18:35;;;;;;;1.50;1.03;;;16.80;99.90;;;;;;5037339;28;20257;-77
2022/09/01 02:21:09;;;;;;;1.90;1.10;;;16.80;99.90;;;;;;5034978;28;20161;-76
2022/09/01 02:23:37;;;;;;;1.60;0.83;;;16.70;99.90;;;;;;5034794;28;20164;-78
2022/09/01 02:26:05;;;;;;;2.13;1.30;;;16.60;99.90;;;;;;5035969;28;20223;-77
2022/09/01 02:28:33;;;;;;;0.90;0.80;;;16.60;99.90;;;;;;5035957;28;20169;-76
2022/09/01 02:31:01;;;;;;;3.63;1.30;;;16.50;99.90;;;;;;5035895;28;20538;-78
2022/09/01 02:33:27;;;;;;;1.70;0.97;;;16.50;1.00;;;;;;5033865;28;20169;-76
2022/09/01 02:35:55;;;;;;;6.57;1.10;;;16.50;1.00;;;;;;5034204;28;20207;-78
2022/09/01 02:38:24;;;;;;;2.83;1.00;;;16.50;1.00;;;;;;5034266;28;20188;-78
2022/09/01 02:40:52;;;;;;;4.87;1.37;;;16.40;1.00;;;;;;5037959;28;20627;-77
2022/09/01 02:43:19;;;;;;;1.40;0.90;;;16.40;1.00;;;;;;5035241;28;20614;-78
2022/09/01 02:45:54;;;;;;;2.07;0.90;;;16.30;1.00;;;;;;5036379;28;20211;-77
2022/09/01 02:48:25;;;;;;;2.40;1.27;;;16.30;1.00;;;;;;5034484;28;20164;-77
2022/09/01 02:50:51;;;;;;;3.27;1.10;;;16.30;1.00;;;;;;5035932;28;20153;-78
2022/09/01 02:53:17;;;;;;;2.87;1.20;;;16.20;19.60;;;;;;5034330;28;20740;-78
2022/09/01 02:55:43;;;;;;;3.47;1.10;;;16.20;99.90;;;;;;5036258;28;20168;-77
2022/09/01 02:58:15;;;;;;;5.70;0.90;;;16.20;99.90;;;;;;5035658;28;20259;-78
2022/09/01 03:00:43;;;;;;;3.47;1.00;;;16.20;99.90;;;;;;5034009;28;20599;-77
2022/09/01 03:03:11;;;;;;;3.07;1.23;;;16.20;99.90;;;;;;5034285;28;20203;-77
2022/09/01 03:05:38;;;;;;;1.73;0.90;;;16.10;99.90;;;;;;5036569;28;20196;-78
2022/09/01 03:08:09;;;;;;;1.83;1.10;;;16.10;99.90;;;;;;5037815;28;20164;-78
2022/09/01 03:10:40;;;;;;;1.40;1.03;;;16.10;99.90;;;;;;5039371;28;20199;-78
2022/09/01 03:13:09;;;;;;;3.03;1.20;;;16.10;99.90;;;;;;5041604;28;20270;-78
2022/09/01 03:15:35;;;;;;;3.13;1.43;;;16.10;99.90;;;;;;5039728;28;20195;-77
2022/09/01 03:18:03;;;;;;;2.60;1.17;;;16.10;99.90;;;;;;5037353;28;20176;-77
2022/09/01 03:20:32;;;;;;;1.40;1.13;;;16.00;99.90;;;;;;5038584;28;20262;-78
2022/09/01 03:22:59;;;;;;;1.77;1.17;;;16.00;99.90;;;;;;5036807;28;20693;-77
2022/09/01 03:25:26;;;;;;;1.23;1.10;;;15.90;99.90;;;;;;5037172;28;20664;-78
2022/09/01 03:27:52;;;;;;;2.27;1.20;;;15.90;99.90;;;;;;5038554;28;20684;-77
2022/09/01 03:30:18;;;;;;;2.33;1.00;;;15.90;99.90;;;;;;5038882;28;20168;-77
2022/09/01 03:32:44;;;;;;;2.93;1.30;;;15.90;99.90;;;;;;5038639;28;20233;-77
2022/09/01 03:35:10;;;;;;;1.67;1.10;;;15.80;99.90;;;;;;5038288;28;20215;-78
2022/09/01 03:37:38;;;;;;;1.63;1.00;;;15.80;99.90;;;;;;5038169;28;20222;-77
2022/09/01 03:40:07;;;;;;;3.63;1.20;;;15.80;99.90;;;;;;5038481;28;20179;-78
2022/09/01 03:42:34;;;;;;;2.43;1.20;;;15.80;99.90;;;;;;5036629;28;20306;-78
2022/09/01 03:45:11;;;;;;;3.33;1.20;;;15.70;99.90;;;;;;5038201;28;20175;-77
2022/09/01 03:47:41;;;;;;;2.07;1.17;;;15.70;99.90;;;;;;5038884;28;20187;-77
2022/09/01 03:50:21;;;;;;;2.67;1.40;;;15.70;99.90;;;;;;5037438;28;20169;-78
2022/09/01 03:52:52;;;;;;;1.53;1.20;;;15.70;99.90;;;;;;5038083;28;20275;-78
2022/09/01 03:55:22;;;;;;;3.60;1.40;;;15.70;99.90;;;;;;5036927;28;20161;-77
2022/09/01 03:58:05;;;;;;;4.13;1.40;;;15.60;99.90;;;;;;5037144;28;20172;-78
2022/09/01 04:00:34;;;;;;;1.47;1.07;;;15.60;99.90;;;;;;5038878;28;20148;-78
2022/09/01 04:03:04;;;;;;;2.47;1.07;;;15.60;99.90;;;;;;5037070;28;20679;-77
2022/09/01 04:05:32;;;;;;;2.10;1.10;;;15.60;99.90;;;;;;5036885;28;20247;-77
2022/09/01 04:08:04;;;;;;;2.47;1.17;;;15.50;99.90;;;;;;5035997;28;20229;-77
2022/09/01 04:10:31;;;;;;;1.50;1.10;;;15.50;99.90;;;;;;5051981;22;20183;-80
2022/09/01 04:13:01;;;;;;;2.73;1.00;;;15.50;99.90;;;;;;5017390;28;20176;-80
2022/09/01 04:15:28;;;;;;;1.50;1.17;;;15.50;99.90;;;;;;5018889;28;20176;-80
2022/09/01 04:18:09;;;;;;;5.10;1.30;;;15.50;99.90;;;;;;5018833;28;20631;-80
2022/09/01 04:20:47;;;;;;;2.37;1.43;;;15.40;99.90;;;;;;5017413;28;20680;-80
2022/09/01 04:23:33;;;;;;;3.07;1.27;;;15.50;99.90;;;;;;5019179;28;20204;-80
2022/09/01 04:26:08;;;;;;;2.17;1.60;;;15.50;99.90;;;;;;5019366;28;20196;-80
2022/09/01 04:28:49;;;;;;;1.90;1.20;;;15.50;99.90;;;;;;5017792;28;20168;-80
2022/09/01 04:31:17;;;;;;;1.83;1.10;;;15.40;99.90;;;;;;5019662;28;20185;-80
2022/09/01 04:33:45;;;;;;;2.90;1.23;;;15.40;99.90;;;;;;5018177;28;20169;-80
2022/09/01 04:36:27;;;;;;;8.63;1.30;;;15.40;99.90;;;;;;5026931;28;20181;-80
2022/09/01 04:38:58;;;;;;;5.40;1.53;;;15.40;55.70;;;;;;5031742;28;20161;-80
2022/09/01 04:41:32;;;;;;;2.53;1.10;;;15.40;99.90;;;;;;5019308;28;20248;-80
2022/09/01 04:44:03;;;;;;;2.17;1.30;;;15.40;99.90;;;;;;5017423;28;20165;-79
2022/09/01 04:46:32;;;;;;;1.87;1.20;;;15.30;99.90;;;;;;5016767;28;20220;-79
2022/09/01 04:48:58;;;;;;;2.93;1.00;;;15.30;99.90;;;;;;5017036;28;20169;-79
2022/09/01 04:51:26;;;;;;;1.50;1.17;;;15.30;99.90;;;;;;5017820;28;20185;-80
2022/09/01 04:53:53;;;;;;;2.90;1.57;;;15.30;99.90;;;;;;5014557;28;20553;-77
2022/09/01 04:56:21;;;;;;;2.47;1.20;;;15.20;99.90;;;;;;5014366;28;20173;-77
2022/09/01 04:58:49;;;;;;;5.23;1.20;;;15.20;99.90;;;;;;5013205;28;20212;-77
2022/09/01 05:01:17;;;;;;;3.33;1.27;;;15.20;99.90;;;;;;5013435;28;20626;-77
2022/09/01 05:03:44;;;;;;;4.67;1.10;;;15.20;99.90;;;;;;5014342;28;20180;-76
2022/09/01 05:06:18;;;;;;;7.47;1.43;;;15.20;99.90;;;;;;5015103;28;20603;-77
2022/09/01 05:08:46;;;;;;;2.87;1.40;;;15.10;99.90;;;;;;5013665;28;20263;-77
2022/09/01 05:11:15;;;;;;;2.17;1.30;;;15.10;99.90;;;;;;5014763;28;20291;-77
2022/09/01 05:13:42;;;;;;;3.13;1.30;;;15.10;99.90;;;;;;5014929;28;20171;-78
2022/09/01 05:16:13;;;;;;;3.23;1.10;;;15.10;99.90;;;;;;5016486;28;20222;-78
2022/09/01 05:18:41;;;;;;;1.70;1.10;;;15.10;99.90;;;;;;5014738;28;20173;-78
2022/09/01 05:21:10;;;;;;;1.83;1.10;;;15.10;99.90;;;;;;5013798;28;20342;-78
2022/09/01 05:23:39;;;;;;;6.43;1.20;;;15.10;99.90;;;;;;5014703;28;20184;-78
2022/09/01 05:26:15;;;;;;;3.00;1.13;;;15.00;99.90;;;;;;5015745;28;20196;-78
2022/09/01 05:28:42;;;;;;;4.43;1.17;;;15.00;99.90;;;;;;5014119;28;20172;-78
2022/09/01 05:31:09;;;;;;;3.33;1.40;;;15.00;99.90;;;;;;5015560;28;20193;-77
2022/09/01 05:33:35;;;;;;;2.43;1.30;;;15.00;1.00;;;;;;5015260;28;20544;-78
2022/09/01 05:36:06;;;;;;;1.93;1.40;;;15.00;99.90;;;;;;5018471;28;20169;-78
2022/09/01 05:38:33;;;;;;;5.13;1.30;;;15.00;1.00;;;;;;5019100;28;20165;-77
2022/09/01 05:41:08;;;;;;;2.80;1.20;;;15.00;1.00;;;;;;5015233;28;20193;-78
2022/09/01 05:43:34;;;;;;;2.50;1.30;;;14.90;1.00;;;;;;5015174;28;20164;-78
2022/09/01 05:46:02;;;;;;;4.90;1.33;;;14.90;1.00;;;;;;5014017;28;20204;-77
2022/09/01 05:48:30;;;;;;;3.47;1.33;;;14.90;1.00;;;;;;5013479;28;20586;-78
2022/09/01 05:50:58;;;;;;;3.53;1.30;;;14.90;1.00;;;;;;5015230;28;20213;-77
2022/09/01 05:53:29;;;;;;;5.43;1.40;;;14.90;1.00;;;;;;5014025;28;20177;-78
2022/09/01 05:55:56;;;;;;;2.50;1.10;;;14.90;1.00;;;;;;5015470;28;20190;-78
2022/09/01 05:58:26;;;;;;;2.53;1.47;;;14.90;1.00;;;;;;5014188;28;20241;-78
2022/09/01 06:00:54;;;;;;;2.03;1.30;;;15.00;1.00;;;;;;5014189;28;20224;-78
2022/09/01 06:03:21;;;;;;;5.57;1.33;;;14.90;1.00;;;;;;5015316;28;20224;-78
2022/09/01 06:05:51;;;;;;;5.03;1.40;;;14.90;1.00;;;;;;5013324;28;20246;-78
2022/09/01 06:08:20;;;;;;;5.10;1.63;;;14.90;1.00;;;;;;5014528;28;20208;-78
2022/09/01 06:10:47;;;;;;;1.43;1.20;;;14.90;1.00;;;;;;5013560;28;20212;-77
2022/09/01 06:13:14;;;;;;;1.47;1.30;;;14.90;1.00;;;;;;5015694;28;20204;-79
2022/09/01 06:15:41;;;;;;;2.23;1.30;;;14.90;1.00;;;;;;5015948;28;20232;-78
2022/09/01 06:18:12;;;;;;;4.10;1.30;;;14.90;1.00;;;;;;5016418;28;20169;-78
2022/09/01 06:20:39;;;;;;;7.90;1.30;;;14.90;1.00;;;;;;5014474;28;20196;-79
2022/09/01 06:23:05;;;;;;;3.83;1.07;;;15.00;1.00;;;;;;5017012;28;20177;-79
2022/09/01 06:25:31;;;;;;;5.20;1.33;;;15.00;1.00;;;;;;5016696;28;20177;-78
2022/09/01 06:27:57;;;;;;;3.93;1.50;;;15.00;1.00;;;;;;5016784;28;20684;-79
2022/09/01 06:30:25;;;;;;;2.20;1.40;;;15.00;86.50;;;;;;5015429;28;20255;-79
2022/09/01 06:32:52;;;;;;;4.47;1.27;;;15.00;62.80;;;;;;5015447;28;20172;-78
2022/09/01 06:35:20;;;;;;;3.87;1.30;;;15.20;1.00;;;;;;5014779;28;20195;-79
2022/09/01 06:37:47;;;;;;;1.93;1.00;;;15.10;1.00;;;;;;5016291;28;20169;-79
2022/09/01 06:40:18;;;;;;;2.43;1.10;;;15.20;1.00;;;;;;5015616;28;20173;-79
2022/09/01 06:42:49;;;;;;;3.63;1.00;;;15.30;1.00;;;;;;5016034;28;20184;-78
2022/09/01 06:45:17;;;;;;;2.47;1.23;;;15.30;1.00;;;;;;5018408;28;20516;-78
2022/09/01 06:47:44;;;;;;;2.10;1.07;;;15.40;1.00;;;;;;5019126;28;20270;-78
2022/09/01 06:50:14;;;;;;;1.30;0.90;;;15.40;1.00;;;;;;5020153;28;20173;-79
2022/09/01 06:52:41;;;;;;;1.87;1.10;;;15.50;37.30;;;;;;5018970;28;20235;-78
2022/09/01 06:55:09;;;;;;;2.10;1.13;;;15.70;99.90;;;;;;5022269;28;20267;-79
2022/09/01 06:57:36;;;;;;;1.57;1.23;;;15.80;99.90;;;;;;5034220;28;20173;-79
2022/09/01 07:00:16;;;;;;;2.07;1.20;;;16.00;1.60;;;;;;5026784;28;20177;-78
2022/09/01 07:02:45;;;;;;;2.10;1.10;;;16.10;99.90;;;;;;5018895;28;20232;-79
2022/09/01 07:05:13;;;;;;;3.70;1.40;;;16.20;46.60;;;;;;5018431;28;20185;-79
2022/09/01 07:07:39;;;;;;;1.03;0.93;;;16.30;99.90;;;;;;5019303;28;20701;-78
2022/09/01 07:10:05;;;;;;;2.33;1.20;;;16.40;1.00;;;;;;5020092;28;20698;-79
2022/09/01 07:12:31;;;;;;;4.40;1.40;;;16.50;1.00;;;;;;5019904;28;20209;-79
2022/09/01 07:14:57;;;;;;;4.03;1.20;;;16.60;99.90;;;;;;5020725;28;20177;-78
2022/09/01 07:17:23;;;;;;;1.30;1.00;;;16.70;99.90;;;;;;5018133;28;20204;-78
2022/09/01 07:19:48;;;;;;;5.30;1.23;;;16.80;99.90;;;;;;5019888;28;20173;-79
2022/09/01 07:22:14;;;;;;;2.60;0.90;;;16.80;88.40;;;;;;5020014;28;20672;-78
2022/09/01 07:24:39;;;;;;;2.40;1.00;;;16.90;1.00;;;;;;5019447;28;20188;-79
2022/09/01 07:27:05;;;;;;;2.00;1.00;;;17.00;1.00;;;;;;5019834;28;20558;-78
2022/09/01 07:29:31;;;;;;;3.03;1.23;;;17.10;1.00;;;;;;5017892;28;20670;-78
2022/09/01 07:31:58;;;;;;;2.57;1.30;;;17.20;1.00;;;;;;5019388;28;20666;-78
2022/09/01 07:34:24;;;;;;;2.03;1.00;;;17.30;1.00;;;;;;5019571;28;20666;-78
2022/09/01 07:36:55;;;;;;;2.87;0.90;;;17.30;1.00;;;;;;5019327;28;20236;-80
2022/09/01 07:39:21;;;;;;;1.80;1.00;;;17.40;1.00;;;;;;5019230;28;20188;-79
2022/09/01 07:41:47;;;;;;;4.63;1.00;;;17.50;1.00;;;;;;5018890;28;20204;-79
2022/09/01 07:44:13;;;;;;;5.13;1.20;;;17.50;1.00;;;;;;5017176;28;20208;-78
2022/09/01 07:46:40;;;;;;;5.67;1.00;;;17.60;99.90;;;;;;5017716;28;20201;-78
2022/09/01 07:49:06;;;;;;;1.37;0.83;;;17.60;99.90;;;;;;5017948;28;20516;-78
2022/09/01 07:51:33;;;;;;;2.20;1.07;;;17.70;99.90;;;;;;5018775;28;20662;-79
2022/09/01 07:54:01;;;;;;;1.43;1.00;;;17.80;99.90;;;;;;5018842;28;20177;-79
2022/09/01 07:56:29;;;;;;;3.30;1.20;;;17.90;99.90;;;;;;5016958;28;20173;-78
2022/09/01 07:58:56;;;;;;;2.50;1.30;;;18.00;99.90;;;;;;5018213;28;20169;-78
2022/09/01 08:01:24;;;;;;;1.93;0.90;;;18.00;1.00;;;;;;5018470;28;20212;-78
2022/09/01 08:03:58;;;;;;;1.47;0.60;;;18.10;99.90;;;;;;5018807;28;20173;-78
2022/09/01 08:06:26;;;;;;;4.07;1.07;;;18.20;99.90;;;;;;5018557;28;20651;-78
2022/09/01 08:08:55;;;;;;;2.30;1.00;;;18.30;1.00;;;;;;5019234;28;20174;-79
2022/09/01 08:11:24;;;;;;;3.03;0.80;;;18.50;1.00;;;;;;5018616;28;20231;-78
2022/09/01 08:13:51;;;;;;;4.70;1.13;;;18.60;1.00;;;;;;5018013;28;20169;-78
2022/09/01 08:16:16;;;;;;;1.00;0.70;;;18.70;99.90;;;;;;5018572;28;20172;-79
2022/09/01 08:18:43;;;;;;;1.47;0.80;;;18.90;99.90;;;;;;5017460;28;20180;-79
2022/09/01 08:21:11;;;;;;;2.20;1.17;;;18.90;99.90;;;;;;5017745;28;20327;-77
2022/09/01 08:23:38;;;;;;;4.10;1.20;;;19.00;1.00;;;;;;5016296;28;20184;-78
2022/09/01 08:26:09;;;;;;;4.60;1.00;;;19.00;1.00;;;;;;5016578;28;20320;-79
2022/09/01 08:28:35;;;;;;;3.20;1.53;;;19.10;1.00;;;;;;5018067;28;20173;-78
2022/09/01 08:31:09;;;;;;;0.90;0.80;;;19.20;99.90;;;;;;5016682;28;20197;-78
2022/09/01 08:33:36;;;;;;;7.20;1.10;;;19.30;99.90;;;;;;5018273;28;20252;-79
2022/09/01 08:36:02;;;;;;;3.27;0.73;;;19.50;73.20;;;;;;5014475;28;20180;-76
2022/09/01 08:38:28;;;;;;;1.60;0.80;;;19.50;23.90;;;;;;5014619;28;20176;-76
2022/09/01 08:40:56;;;;;;;1.97;1.00;;;19.70;1.00;;;;;;5012624;28;20192;-77
2022/09/01 08:43:31;;;;;;;1.00;0.70;;;19.70;1.00;;;;;;5013838;28;20173;-77
2022/09/01 08:46:05;;;;;;;2.50;0.80;;;19.70;26.20;;;;;;5013578;28;20602;-76
2022/09/01 08:48:50;;;;;;;0.90;0.53;;;19.70;1.00;;;;;;5014722;28;20157;-76
2022/09/01 08:51:50;;;;;;;5.00;0.83;;;19.90;1.00;;;;;;5014563;28;20228;-77
2022/09/01 08:54:16;;;;;;;3.30;0.90;;;20.10;1.00;;;;;;4947678;28;20205;-76
2022/09/01 08:56:41;;;;;;;1.77;0.60;;;20.20;1.00;;;;;;5015318;28;20162;-77
2022/09/01 08:59:08;;;;;;;1.43;0.80;;;20.40;1.00;;;;;;5014581;28;20183;-77
2022/09/01 09:01:54;;;;;;;1.97;0.90;;;20.40;1.00;;;;;;5013005;28;20291;-77
2022/09/01 09:04:38;;;;;;;1.33;0.80;;;20.60;1.00;;;;;;5012989;28;20169;-76
2022/09/01 09:07:36;;;;;;;1.97;0.83;;;20.70;99.90;;;;;;5013249;28;20561;-76
2022/09/01 09:10:10;;;;;;;3.63;1.00;;;20.70;99.90;;;;;;5014474;28;20241;-76
2022/09/01 09:12:57;;;;;;;1.00;0.83;;;20.80;99.90;;;;;;5013990;28;20186;-77
2022/09/01 09:15:26;;;;;;;3.43;0.90;;;20.80;99.90;;;;;;5012648;28;20600;-76
2022/09/01 09:18:12;;;;;;;0.80;0.60;;;20.90;99.90;;;;;;5012695;28;20531;-76
2022/09/01 09:20:37;;;;;;;0.90;0.70;;;20.90;99.90;;;;;;5013987;28;20193;-77
2022/09/01 09:23:19;;;;;;;1.67;0.70;;;21.00;99.90;;;;;;5012608;28;20185;-76
2022/09/01 09:25:45;;;;;;;1.27;0.73;;;21.10;99.90;;;;;;5014162;28;20180;-76
2022/09/01 09:28:12;;;;;;;2.27;0.80;;;21.20;99.90;;;;;;5013858;28;20181;-77
2022/09/01 09:30:37;;;;;;;1.73;0.83;;;21.20;99.90;;;;;;5013934;28;20197;-76
2022/09/01 09:33:09;;;;;;;1.47;0.90;;;21.30;99.90;;;;;;5013762;28;20544;-76
2022/09/01 09:35:40;;;;;;;1.43;0.87;;;21.30;99.90;;;;;;5013869;28;20165;-77
2022/09/01 09:38:18;;;;;;;1.27;0.80;;;21.40;99.90;;;;;;5013815;28;20240;-77
2022/09/01 09:41:13;;;;;;;1.50;0.90;;;21.40;99.90;;;;;;5014280;28;20185;-77
2022/09/01 09:43:49;;;;;;;1.03;0.80;;;21.50;99.90;;;;;;5013679;28;20161;-76
2022/09/01 09:46:30;;;;;;;1.07;0.70;;;21.60;99.90;;;;;;5014210;28;20181;-76
2022/09/01 09:49:25;;;;;;;2.77;0.80;;;21.60;99.90;;;;;;5013513;28;20234;-76
2022/09/01 09:51:50;;;;;;;2.07;0.97;;;21.70;99.90;;;;;;5012231;28;20208;-76
2022/09/01 09:54:22;;;;;;;2.73;0.77;;;21.80;99.90;;;;;;5013504;28;20170;-77
2022/09/01 09:57:18;;;;;;;1.90;0.67;;;21.80;99.90;;;;;;5013523;28;20192;-77
2022/09/01 09:59:56;;;;;;;1.43;0.80;;;21.90;99.90;;;;;;5013630;28;20263;-79
2022/09/01 10:02:25;;;;;;;0.53;0.53;;;22.00;58.50;;;;;;5017145;28;20248;-78
2022/09/01 10:04:52;;;;;;;1.47;0.80;;;22.00;63.50;;;;;;5017368;28;20606;-80
2022/09/01 10:07:35;;;;;;;2.17;0.80;;;22.10;78.40;;;;;;5015648;28;20204;-80
2022/09/01 10:10:05;;;;;;;1.03;0.60;;;22.10;74.90;;;;;;5016429;28;20184;-78
2022/09/01 10:12:32;;;;;;;0.70;0.60;;;22.20;95.10;;;;;;5017636;28;20251;-79
2022/09/01 10:15:03;;;;;;;4.90;0.70;;;22.20;88.70;;;;;;5016963;28;20198;-78
2022/09/01 10:17:39;;;;;;;5.67;0.83;;;22.30;44.70;;;;;;5016639;28;20169;-79
2022/09/01 10:20:08;;;;;;;0.97;0.67;;;22.30;80.50;;;;;;5020576;28;20697;-80
2022/09/01 10:22:36;;;;;;;1.57;0.77;;;22.30;67.00;;;;;;5019373;28;20272;-79
2022/09/01 10:25:04;;;;;;;1.67;0.80;;;22.40;28.20;;;;;;5019351;28;20231;-78
2022/09/01 10:27:34;;;;;;;0.83;0.53;;;22.40;68.80;;;;;;5021246;28;20771;-79
2022/09/01 10:30:14;;;;;;;1.93;0.80;;;22.50;18.40;;;;;;5021362;28;20654;-80
2022/09/01 10:33:00;;;;;;;1.07;0.80;;;22.40;10.90;;;;;;5019482;28;20353;-79
2022/09/01 10:35:31;;;;;;;1.73;0.60;;;22.50;24.40;;;;;;5020538;28;20188;-79
2022/09/01 10:38:01;;;;;;;1.13;0.90;;;22.60;22.70;;;;;;5020094;28;20248;-79
2022/09/01 10:40:27;;;;;;;4.07;0.80;;;22.70;52.80;;;;;;5021104;28;20173;-79
2022/09/01 10:42:56;;;;;;;1.40;0.80;;;22.70;59.20;;;;;;5020120;28;20166;-80
2022/09/01 10:45:32;;;;;;;0.80;0.80;;;22.70;6.70;;;;;;5020515;28;20227;-78
2022/09/01 10:48:20;;;;;;;1.37;0.80;;;22.70;17.70;;;;;;5019194;28;20654;-79
2022/09/01 10:50:47;;;;;;;1.10;0.70;;;22.80;1.70;;;;;;5020284;28;20189;-78
2022/09/01 10:53:37;;;;;;;2.27;0.87;;;22.80;1.00;;;;;;5020927;28;20227;-78
2022/09/01 10:56:09;;;;;;;2.03;0.97;;;23.00;1.00;;;;;;5013462;28;20196;-79
2022/09/01 10:59:29;;;;;;;2.83;1.30;;;23.10;1.00;;;;;;5020494;28;20192;-79
2022/09/01 11:02:09;;;;;;;1.50;0.90;;;23.20;11.90;;;;;;4960360;29;20199;-78
2022/09/01 11:04:40;;;;;;;1.70;0.80;;;23.30;3.10;;;;;;5010089;28;20191;-79
2022/09/01 11:07:18;;;;;;;1.80;0.90;;;23.40;1.00;;;;;;5019931;28;20204;-78
2022/09/01 11:10:14;;;;;;;0.70;0.67;;;23.30;1.00;;;;;;5018692;28;20184;-78
2022/09/01 11:12:46;;;;;;;1.27;0.70;;;23.40;1.00;;;;;;5020203;28;20797;-79
2022/09/01 11:15:14;;;;;;;3.77;0.93;;;23.40;10.80;;;;;;5020482;28;20177;-79
2022/09/01 11:17:52;;;;;;;1.67;0.70;;;23.40;1.90;;;;;;5019920;28;20232;-79
2022/09/01 11:20:28;;;;;;;1.70;0.80;;;23.60;12.50;;;;;;5019328;28;20643;-80
2022/09/01 11:23:04;;;;;;;3.17;0.90;;;23.60;24.70;;;;;;5019256;28;20541;-79
2022/09/01 11:25:37;;;;;;;1.33;0.73;;;23.60;27.50;;;;;;5020450;28;20180;-79
2022/09/01 11:28:08;;;;;;;2.03;0.97;;;23.60;17.60;;;;;;5019658;28;20165;-79
2022/09/01 11:30:53;;;;;;;1.80;0.87;;;23.60;17.30;;;;;;5017820;28;20220;-79
2022/09/01 11:33:47;;;;;;;2.13;1.17;;;23.60;1.00;;;;;;5018707;28;20165;-78
2022/09/01 11:36:34;;;;;;;2.47;0.90;;;23.60;10.10;;;;;;5019644;28;20553;-78
2022/09/01 11:39:18;;;;;;;3.70;1.07;;;23.70;21.20;;;;;;5018831;28;20655;-79
2022/09/01 11:41:43;;;;;;;1.30;0.90;;;23.90;13.70;;;;;;5019839;28;20278;-79
2022/09/01 11:44:26;;;;;;;0.73;0.70;;;24.00;23.70;;;;;;5019846;28;20177;-79
2022/09/01 11:47:01;;;;;;;1.87;1.10;;;24.10;1.00;;;;;;5019870;28;20243;-78
2022/09/01 11:49:32;;;;;;;1.87;1.10;;;24.20;1.00;;;;;;5020010;28;20164;-79
2022/09/01 11:51:59;;;;;;;2.70;1.10;;;24.30;1.00;;;;;;5020224;28;20193;-79
2022/09/01 11:54:25;;;;;;;4.17;0.93;;;24.40;1.00;;;;;;5019437;28;20169;-79
2022/09/01 11:56:52;;;;;;;2.07;1.10;;;24.40;1.00;;;;;;5019221;28;20721;-80
2022/09/01 11:59:32;;;;;;;1.40;0.87;;;24.50;1.00;;;;;;5018188;28;20227;-80
2022/09/01 12:01:58;;;;;;;1.93;0.90;;;24.40;1.00;;;;;;5018269;28;20683;-79
2022/09/01 12:04:30;;;;;;;1.83;0.97;;;24.50;3.20;;;;;;5018919;28;20231;-79
2022/09/01 12:07:03;;;;;;;1.50;1.03;;;24.60;1.00;;;;;;5019289;28;20188;-79
2022/09/01 12:09:40;;;;;;;1.43;1.03;;;24.60;1.00;;;;;;5019034;28;20173;-79
2022/09/01 12:12:24;;;;;;;2.47;1.10;;;24.70;1.00;;;;;;5016661;28;20702;-79
2022/09/01 12:15:03;;;;;;;2.07;0.90;;;24.70;1.00;;;;;;5017645;28;20157;-79
2022/09/01 12:17:28;;;;;;;1.83;1.07;;;24.60;1.00;;;;;;5018653;28;20158;-78
2022/09/01 12:19:54;;;;;;;2.40;1.00;;;24.50;1.00;;;;;;5017915;28;20188;-78
2022/09/01 12:22:21;;;;;;;1.50;0.90;;;24.70;1.00;;;;;;5018324;28;20227;-79
2022/09/01 12:24:52;;;;;;;1.93;1.00;;;24.50;1.00;;;;;;5018083;28;20177;-78
2022/09/01 12:27:20;;;;;;;1.77;0.80;;;24.50;1.00;;;;;;5016135;28;20292;-79
2022/09/01 12:29:46;;;;;;;5.30;1.10;;;24.40;1.00;;;;;;5018286;28;20179;-79
2022/09/01 12:32:13;;;;;;;2.03;1.10;;;24.30;1.00;;;;;;5017365;28;20217;-79
2022/09/01 12:34:40;;;;;;;2.67;0.90;;;24.30;1.00;;;;;;5015335;28;20707;-78
2022/09/01 12:37:19;;;;;;;2.50;0.90;;;24.60;1.00;;;;;;5015261;28;20594;-78
2022/09/01 12:39:47;;;;;;;3.83;0.88;;;24.80;1.20;;;;;;5016508;28;20168;-78
2022/09/01 12:42:18;;;;;;;1.35;0.85;;;24.90;1.00;;;;;;5016599;28;20275;-79
2022/09/01 12:44:50;;;;;;;1.93;1.00;;;24.90;1.00;;;;;;5016873;28;20173;-78
2022/09/01 12:47:34;;;;;;;2.13;1.00;;;24.90;1.00;;;;;;5015995;28;20215;-79
2022/09/01 12:50:04;;;;;;;3.50;0.98;;;24.90;1.00;;;;;;5016654;28;20161;-78
2022/09/01 12:52:34;;;;;;;3.97;1.20;;;24.70;1.00;;;;;;5014486;28;20225;-78
2022/09/01 12:55:02;;;;;;;3.53;1.05;;;24.70;1.00;;;;;;5014897;28;20173;-79
2022/09/01 12:57:28;;;;;;;1.40;1.08;;;24.90;1.00;;;;;;5016278;28;20184;-79
2022/09/01 13:00:10;;;;;;;2.22;0.95;;;24.90;1.00;;;;;;5016633;28;20205;-78
2022/09/01 13:02:42;;;;;;;5.03;1.10;;;24.90;1.00;;;;;;5015075;28;20200;-79
2022/09/01 13:05:50;;;;;;;3.13;1.13;;;25.00;1.00;;;;;;5014508;28;20177;-78
2022/09/01 13:08:25;;;;;;;1.67;1.15;;;25.00;1.00;;;;;;4955712;29;20163;-79
2022/09/01 13:10:57;;;;;;;1.65;1.05;;;25.10;1.00;;;;;;4955744;29;20301;-79
2022/09/01 13:13:24;;;;;;;1.00;0.90;;;25.20;1.00;;;;;;4983522;28;20192;-79